ADDS METAR Data INFO
IDs: Format: Raw Decoded Include TAF

Data at: 0025 UTC 17 Dec 2017

KDTW 162353Z 06006KT 8SM OVC070 M01/M05 A3012 RMK AO2 SLP205 T10111050 10006 21011 51028
KDTW 162253Z 06007KT 10SM FEW020 OVC080 M01/M06 A3010 RMK AO2 SLP198 T10111056
KDTW 162153Z 04009KT 9SM FEW020 OVC085 M01/M05 A3007 RMK AO2 SLP188 T10061050
KDTW 162053Z 05007KT 8SM OVC085 00/M04 A3003 RMK AO2 SLP177 T00001044 53016 $
KDTW 161953Z 05008KT 7SM BKN090 00/M04 A3000 RMK AO2 SLP167 T00001044 $
KDTW 161853Z 03010KT 5SM HZ FEW025 OVC090 00/M04 A2999 RMK AO2 SLP161 T00001039 $
KDTW 161839Z 04007KT 5SM HZ SCT025 OVC090 01/M03 A2999 RMK AO2 T00061033 $
KDTW 161753Z 04007KT 6SM HZ OVC025 01/M03 A2998 RMK AO2 SNE23 SLP160 P0000 60000 T00061028 10033 20006 51008 $
KDTW 161735Z 05006KT 7SM BKN025 OVC090 01/M03 A2998 RMK AO2 SNE23 P0000 T00061028 $
KDTW 161653Z 00000KT 8SM -SN BKN060 OVC080 03/M03 A2997 RMK AO2 SLP156 P0000 T00331028 $
KDTW 161553Z 00000KT 7SM -SN BKN060 OVC080 02/M03 A2999 RMK AO2 SNB17 SLP161 P0000 T00221033 $
KDTW 161453Z 24010KT 10SM BKN060 OVC080 02/M04 A2996 RMK AO2 SLP152 60000 T00221039 53016 $
KDTW 161353Z 22012KT 10SM FEW040 BKN055 OVC080 02/M04 A2993 RMK AO2 SLP143 T00221039 $
KDTW 161253Z 22010KT 10SM BKN030 OVC045 01/M04 A2992 RMK AO2 SNE40 SLP140 P0000 T00111039 $
KDTW 161153Z 22012KT 8SM -SN OVC040 01/M04 A2991 RMK AO2 SLP136 P0000 60002 70003 T00111039 10017 21017 55000 $
KDTW 161053Z 22012KT 9SM -SN OVC048 01/M04 A2989 RMK AO2 SNE28B49 SLP130 P0000 T00061044 $
KDTW 160953Z 22012KT 5SM -SN SCT035 BKN045 OVC070 00/M03 A2990 RMK AO2 SLP131 P0001 T00001033 $
KDTW 160853Z 21013KT 5SM -SN FEW025 BKN035 OVC050 M01/M04 A2991 RMK AO2 SLP137 P0001 60001 T10061039 50005 $
KDTW 160844Z 22012KT 3SM -SN SCT025 BKN035 OVC045 M01/M03 A2991 RMK AO2 TWR VIS 4 P0001 T10061033 $
KDTW 160817Z 22013KT 2SM -SN FEW015 BKN025 OVC040 M01/M04 A2992 RMK AO2 TWR VIS 4 P0000 T10061039 $
KDTW 160753Z 22014KT 3SM -SN SCT035 OVC045 M01/M04 A2992 RMK AO2 TWR VIS 4 SLP139 P0000 T10061039
KDTW 160739Z 22014KT 2 1/2SM -SN SCT025 BKN035 OVC060 M01/M04 A2992 RMK AO2 TWR VIS 4 P0000 T10061044
KDTW 160653Z 23011KT 7SM -SN BKN025 OVC035 M01/M05 A2991 RMK AO2 SLP135 P0000 T10061050
KDTW 160643Z 23014KT 8SM -SN BKN025 OVC035 M01/M05 A2991 RMK AO2 P0000 T10061050
KDTW 160553Z 22007KT 8SM -SN BKN045 OVC060 M02/M06 A2990 RMK AO2 SLP132 P0000 60000 T10171056 11017 21022 58008
KDTW 160453Z 22007KT 5SM -SN BKN030 BKN035 OVC045 M02/M06 A2991 RMK AO2 SLP137 P0000 T10171056 410111078
KDTW 160353Z 23010KT 5SM -SN OVC030 M02/M07 A2992 RMK AO2 SLP140 P0000 T10171067
KDTW 160253Z 22011KT 9SM -SN OVC030 M02/M07 A2992 RMK AO2 SNB16 SLP141 P0000 60000 T10171072 51013
KDTW 160153Z 23013KT 10SM OVC039 M02/M08 A2991 RMK AO2 SLP137 T10171083
KDTW 160053Z 23011KT 10SM OVC055 M02/M09 A2990 RMK AO2 SLP134 T10221089
KDTW 152353Z 24013KT 10SM OVC050 M02/M08 A2989 RMK AO2 SNE19 SLP128 P0000 60001 T10171083 11011 21022 53019
KDTW 152253Z 24014KT 9SM -SN FEW045 OVC050 M02/M08 A2986 RMK AO2 SLP120 P0000 T10171078
KDTW 152153Z 25012KT 8SM -SN SCT025 BKN040 OVC050 M01/M07 A2984 RMK AO2 SLP113 P0001 T10111072 $
KDTW 152136Z 26011KT 8SM -SN SCT025 BKN040 OVC050 M02/M07 A2984 RMK AO2 P0001 T10171067
KDTW 152129Z 26010KT 6SM -SN FEW020 BKN025 OVC040 M02/M07 A2983 RMK AO2 P0001 T10171067
KDTW 152122Z 27012G21KT 2SM R03R/6000VP6000FT -SN FEW020 BKN025 OVC040 M02/M07 A2983 RMK AO2 SFC VIS 4 P0001 T10171067
KDTW 152117Z 26014G21KT 1 3/4SM R03R/6000VP6000FT -SN SCT020 BKN025 OVC040 M02/M07 A2983 RMK AO2 TWR VIS 2 P0001 T10171067
KDTW 152053Z 27009KT 2SM -SN BKN025 OVC040 M02/M06 A2983 RMK AO2 SFC VIS 3 SLP110 P0000 60000 T10221061 51008
KDTW 152051Z 27009KT 2SM -SN BKN025 OVC040 M02/M06 A2983 RMK AO2 SFC VIS 3 P0000
KDTW 152032Z 27014KT 1/2SM R03R/4000VP6000FT -SN BKN025 OVC040 M02/M06 A2983 RMK AO2 SFC VIS 3/4 P0000 T10171061
KDTW 152016Z 26017G21KT 2SM -SN BKN025 OVC040 M02/M07 A2982 RMK AO2 SFC VIS 2 1/2 P0000 T10171067
KDTW 151953Z 25014KT 3SM -SN FEW022 BKN030 OVC060 M02/M07 A2981 RMK AO2 TWR VIS 4 SLP104 P0000 T10171067
KDTW 151853Z 23020G25KT 4SM -SN SCT020 BKN030 OVC060 M02/M07 A2980 RMK AO2 SLP101 P0000 T10171072
KDTW 151819Z 23017KT 5SM -SN SCT020 OVC030 M02/M07 A2980 RMK AO2 P0000 T10221072
KDTW 151753Z 23020KT 2SM -SN SCT020 OVC035 M02/M07 A2981 RMK AO2 SFC VIS 4 SLP103 P0000 60000 T10221072 11022 21067 58027
KDTW 151734Z 23019KT 2SM -SN SCT020 OVC035 M02/M07 A2982 RMK AO2 SFC VIS 3 P0000 T10221072
KDTW 151719Z 23016KT 2SM -SN BKN025 OVC045 M02/M07 A2982 RMK AO2 P0000 T10221072
KDTW 151707Z 22017KT 1 3/4SM -SN BKN025 OVC045 M02/M07 A2982 RMK AO2 TWR VIS 2 P0000 T10221072
KDTW 151653Z 23016KT 2SM -SN BKN025 OVC035 M02/M08 A2983 RMK AO2 SFC VIS 2 1/2 SLP110 P0000 T10221078
KDTW 151637Z 22014KT 2SM -SN BKN025 OVC035 M02/M07 A2984 RMK AO2 SFC VIS 2 1/2 P0000 T10221072
KDTW 151553Z 21015KT 2SM -SN OVC035 M03/M08 A2987 RMK AO2 SLP123 P0000 T10281078 $
KDTW 151535Z 21015KT 2SM -SN OVC035 M03/M08 A2987 RMK AO2 P0000 T10281083 $
KDTW 151453Z 21009KT 5SM -SN OVC035 M04/M10 A2989 RMK AO2 SNB43 SLP132 P0000 60000 T10391100 57017 $
KDTW 151353Z 20004KT 10SM SCT035 OVC060 M06/M12 A2990 RMK AO2 SLP137 T10611117 $
KDTW 151253Z 20005KT 10SM OVC035 M06/M12 A2992 RMK AO2 SLP144 T10611122 $